Time;durP1;ratioP1;P1;durP2;ratioP2;P2;SDS_P1;SDS_P2;PMS_P1;PMS_P2;Temp;Humidity;BMP_temperature;BMP_pressure;BME280_temperature;BME280_humidity;BME280_pressure;Samples;Min_cycle;Max_cycle;Signal;HPM_P1;HPM_P2
2022/04/12 00:00:26;;;;;;;1.60;1.10;;;;;;;18.97;42.72;101248.13;5145829;27;20031;-54
2022/04/12 00:02:51;;;;;;;1.63;1.10;;;;;;;19.00;42.81;101247.84;5144837;27;20015;-55
2022/04/12 00:05:16;;;;;;;1.27;1.08;;;;;;;18.98;42.90;101234.50;5145691;27;20023;-53
2022/04/12 00:07:43;;;;;;;1.23;1.10;;;;;;;18.98;42.56;101233.66;5145680;27;20023;-56
2022/04/12 00:10:10;;;;;;;1.30;1.20;;;;;;;18.98;42.88;101225.56;5145882;27;20023;-54
2022/04/12 00:12:37;;;;;;;1.17;0.82;;;;;;;18.96;42.96;101228.44;5144978;27;20031;-56
2022/04/12 00:15:03;;;;;;;1.38;1.27;;;;;;;18.96;42.57;101233.00;5145655;27;20026;-56
2022/04/12 00:20:13;;;;;;;1.02;0.90;;;;;;;18.95;42.77;101229.47;5145656;27;20045;-56
2022/04/12 00:22:41;;;;;;;1.33;1.15;;;;;;;18.95;42.84;101231.31;5145007;27;20119;-56
2022/04/12 00:25:09;;;;;;;1.10;0.93;;;;;;;18.95;42.37;101234.84;5145563;27;20019;-57
2022/04/12 00:27:36;;;;;;;1.33;1.23;;;;;;;18.94;42.89;101235.81;5144767;27;20027;-56
2022/04/12 00:30:02;;;;;;;1.55;1.17;;;;;;;18.93;42.85;101231.44;5127311;27;20275;-57
2022/04/12 00:32:27;;;;;;;1.02;0.85;;;;;;;18.93;42.77;101230.59;5126729;27;20704;-57
2022/04/12 00:34:52;;;;;;;1.50;1.00;;;;;;;18.92;42.85;101221.69;5145054;27;20023;-56
2022/04/12 00:37:18;;;;;;;1.50;1.13;;;;;;;18.92;42.51;101223.53;5145092;27;20079;-54
2022/04/12 00:39:43;;;;;;;1.67;1.35;;;;;;;18.91;42.65;101216.47;5145039;27;20082;-56
2022/04/12 00:42:08;;;;;;;1.10;1.00;;;;;;;18.89;42.73;101208.53;5108894;27;20063;-56
2022/04/12 00:44:34;;;;;;;1.25;1.05;;;;;;;18.91;42.43;101211.09;5145468;27;20052;-56
2022/04/12 00:46:59;;;;;;;1.05;0.95;;;;;;;18.91;42.50;101213.78;5144298;27;20015;-55
2022/04/12 00:49:24;;;;;;;1.77;1.25;;;;;;;18.91;42.47;101211.09;5145398;27;20042;-55
2022/04/12 00:51:50;;;;;;;1.33;1.23;;;;;;;18.89;42.65;101200.44;5126157;27;20068;-55
2022/04/12 00:54:19;;;;;;;1.20;1.10;;;;;;;18.91;42.56;101200.31;5126706;27;20030;-58
2022/04/12 00:56:45;;;;;;;1.25;1.15;;;;;;;18.89;42.48;101196.91;5125038;27;20026;-57
2022/04/12 00:59:11;;;;;;;1.42;1.20;;;;;;;18.89;42.50;101202.28;5145231;27;20569;-55
2022/04/12 01:01:36;;;;;;;1.05;0.90;;;;;;;18.89;42.70;101196.91;5126604;27;20053;-57
2022/04/12 01:04:01;;;;;;;1.38;1.10;;;;;;;18.87;42.51;101190.84;5144717;27;20084;-57
2022/04/12 01:06:26;;;;;;;1.33;1.00;;;;;;;18.86;42.35;101184.63;5143888;27;20031;-57
2022/04/12 01:08:52;;;;;;;1.20;1.00;;;;;;;18.87;42.73;101188.16;5144847;27;20042;-54
2022/04/12 01:11:17;;;;;;;1.92;1.05;;;;;;;18.84;42.70;101185.78;5144112;27;20019;-54
2022/04/12 01:13:42;;;;;;;1.08;0.90;;;;;;;18.84;42.41;101186.63;5109118;27;20407;-57
2022/04/12 01:16:07;;;;;;;2.72;1.45;;;;;;;18.85;42.30;101184.75;5144719;27;20058;-56
2022/04/12 01:18:34;;;;;;;1.20;1.00;;;;;;;18.83;42.31;101184.09;5144525;27;20067;-54
2022/04/12 01:21:00;;;;;;;1.63;1.20;;;;;;;18.81;42.37;101176.16;5144667;27;20035;-56
2022/04/12 01:23:29;;;;;;;1.58;1.38;;;;;;;18.80;42.69;101166.41;5144578;27;20054;-56
2022/04/12 01:25:54;;;;;;;0.98;0.90;;;;;;;18.80;42.59;101165.56;5144317;27;20023;-55
2022/04/12 01:28:19;;;;;;;1.30;1.20;;;;;;;18.82;42.33;101150.94;5107850;27;20023;-54
2022/04/12 01:30:45;;;;;;;1.30;1.20;;;;;;;18.81;42.26;101151.91;5126106;28;20026;-55
2022/04/12 01:33:10;;;;;;;1.10;1.00;;;;;;;18.81;42.39;101140.28;5144736;27;20035;-56
2022/04/12 01:35:36;;;;;;;1.45;1.20;;;;;;;18.70;42.36;101136.06;5144139;27;20555;-54
2022/04/12 01:38:02;;;;;;;1.90;1.27;;;;;;;18.80;42.37;101158.31;5143840;28;20074;-52
2022/04/12 01:40:27;;;;;;;1.77;1.25;;;;;;;18.77;42.39;101153.25;5144296;28;20038;-53
2022/04/12 01:42:53;;;;;;;1.10;1.00;;;;;;;18.78;42.24;101159.50;5143330;28;20064;-55
2022/04/12 01:45:20;;;;;;;1.50;1.20;;;;;;;18.77;42.44;101161.31;5144328;28;20075;-55
2022/04/12 01:47:45;;;;;;;1.10;1.00;;;;;;;18.77;42.33;101163.16;5144238;27;20031;-53
2022/04/12 01:50:10;;;;;;;1.13;0.98;;;;;;;18.76;42.51;101170.41;5144087;28;20037;-52
2022/04/12 01:52:36;;;;;;;1.20;1.00;;;;;;;18.73;42.46;101168.03;5143831;28;20070;-57
2022/04/12 01:55:02;;;;;;;1.52;1.10;;;;;;;18.69;42.41;101162.16;5125463;28;20015;-55
2022/04/12 01:57:28;;;;;;;1.13;1.02;;;;;;;18.76;42.28;101175.81;5125007;28;20065;-57
2022/04/12 01:59:53;;;;;;;1.00;0.90;;;;;;;18.75;42.27;101174.13;5144520;28;20388;-53
2022/04/12 02:02:18;;;;;;;1.15;0.95;;;;;;;18.74;42.23;101180.53;5144063;28;20031;-54
2022/04/12 02:04:43;;;;;;;1.20;1.10;;;;;;;18.73;42.48;101168.91;5144451;28;20019;-54
2022/04/12 02:07:09;;;;;;;1.73;1.63;;;;;;;18.72;42.43;101163.66;5125479;28;20395;-54
2022/04/12 02:09:34;;;;;;;1.30;1.20;;;;;;;18.71;42.34;101161.97;5125666;28;20046;-56
2022/04/12 02:11:59;;;;;;;1.00;0.90;;;;;;;18.69;42.11;101162.16;5142826;28;20131;-54
2022/04/12 02:14:24;;;;;;;0.95;0.90;;;;;;;18.71;42.29;101173.59;5144192;28;20050;-57
2022/04/12 02:16:50;;;;;;;1.17;1.08;;;;;;;18.69;42.26;101170.22;5143794;28;20027;-53
2022/04/12 02:19:15;;;;;;;0.80;0.80;;;;;;;18.68;42.40;101167.66;5144285;28;20038;-57
2022/04/12 02:21:40;;;;;;;1.25;1.15;;;;;;;18.67;42.33;101160.59;5143704;28;20027;-56
2022/04/12 02:24:06;;;;;;;1.15;0.90;;;;;;;18.64;42.33;101167.13;5143877;27;20079;-55
2022/04/12 02:26:31;;;;;;;1.23;0.95;;;;;;;18.66;42.20;101175.06;5146931;27;20180;-57
2022/04/12 02:28:56;;;;;;;1.13;0.98;;;;;;;18.66;42.13;101175.91;5148000;27;20027;-56
2022/04/12 02:31:21;;;;;;;1.48;1.23;;;;;;;18.67;42.14;101188.34;5129116;27;20107;-56
2022/04/12 02:33:47;;;;;;;1.30;1.10;;;;;;;18.66;42.13;101177.75;5147784;27;20035;-52
2022/04/12 02:36:12;;;;;;;1.40;1.30;;;;;;;18.65;42.60;101181.47;5147092;27;20183;-56
2022/04/12 02:38:37;;;;;;;1.85;1.10;;;;;;;18.64;42.08;101169.81;5128808;27;20051;-55
2022/04/12 02:41:03;;;;;;;1.10;1.00;;;;;;;18.64;42.35;101163.59;5147642;27;20050;-52
2022/04/12 02:43:28;;;;;;;1.25;1.00;;;;;;;18.63;42.08;101154.66;5146526;27;20030;-56
2022/04/12 02:45:53;;;;;;;1.20;1.10;;;;;;;18.62;42.07;101157.53;5147197;27;20031;-54
2022/04/12 02:48:18;;;;;;;1.08;0.98;;;;;;;18.62;42.29;101150.28;5147445;27;20031;-57
2022/04/12 02:50:44;;;;;;;1.35;1.10;;;;;;;18.62;42.00;101152.16;5142553;27;20030;-56
2022/04/12 02:53:09;;;;;;;0.98;0.90;;;;;;;18.61;42.10;101145.91;5126663;28;20030;-56
2022/04/12 02:55:34;;;;;;;1.33;1.13;;;;;;;18.59;42.08;101147.06;5126822;28;20098;-55
2022/04/12 02:57:59;;;;;;;1.23;0.80;;;;;;;18.59;42.01;101145.22;5125987;28;20069;-55
2022/04/12 03:00:25;;;;;;;1.25;1.10;;;;;;;18.59;41.99;101139.84;5126867;28;20032;-55
2022/04/12 03:02:50;;;;;;;1.17;1.08;;;;;;;18.60;42.22;101140.69;5136592;27;20034;-55
2022/04/12 03:05:15;;;;;;;1.20;0.80;;;;;;;18.58;42.11;101146.22;5146747;27;20035;-55
2022/04/12 03:07:40;;;;;;;1.00;0.88;;;;;;;18.59;42.14;101144.38;5146819;27;20031;-54
2022/04/12 03:10:06;;;;;;;1.85;1.10;;;;;;;18.55;42.03;101135.78;5146982;27;20019;-56
2022/04/12 03:12:31;;;;;;;1.30;1.20;;;;;;;18.56;41.78;101134.75;5146015;27;20051;-56
2022/04/12 03:14:56;;;;;;;1.60;1.13;;;;;;;18.56;42.09;101129.38;5128613;27;20024;-55
2022/04/12 03:17:22;;;;;;;1.13;1.02;;;;;;;18.54;41.62;101127.88;5146598;27;20442;-55
2022/04/12 03:19:47;;;;;;;1.00;0.90;;;;;;;18.53;41.92;101128.88;5147000;27;20111;-54
2022/04/12 03:22:13;;;;;;;1.35;1.23;;;;;;;18.55;42.12;101140.31;5146341;27;20888;-54
2022/04/12 03:24:38;;;;;;;1.38;1.20;;;;;;;18.53;42.18;101136.97;5128208;27;20030;-52
2022/04/12 03:27:04;;;;;;;1.10;0.98;;;;;;;18.52;41.99;101136.13;5145650;27;20651;-56
2022/04/12 03:29:29;;;;;;;1.52;1.40;;;;;;;18.53;41.89;101132.41;5128297;27;20027;-56
2022/04/12 03:31:54;;;;;;;1.00;0.95;;;;;;;18.54;42.11;101133.25;5146452;27;20035;-56
2022/04/12 03:34:21;;;;;;;0.90;0.90;;;;;;;18.53;42.02;101137.78;5146565;27;20019;-55
2022/04/12 03:36:46;;;;;;;1.00;0.90;;;;;;;18.50;41.96;101124.66;5145821;27;20046;-54
2022/04/12 03:39:17;;;;;;;1.23;1.10;;;;;;;18.52;42.00;101122.66;5146182;27;20054;-54
2022/04/12 03:41:46;;;;;;;1.63;1.00;;;;;;;18.51;42.01;101112.03;5128020;27;20102;-55
2022/04/12 03:44:12;;;;;;;1.40;1.30;;;;;;;18.50;42.00;101113.88;5146360;27;20045;-55
2022/04/12 03:46:37;;;;;;;1.70;1.10;;;;;;;18.49;41.96;101120.28;5146137;27;20027;-56
2022/04/12 03:49:02;;;;;;;1.10;1.02;;;;;;;18.48;42.08;101121.28;5145130;27;20075;-57
2022/04/12 03:51:27;;;;;;;1.10;1.00;;;;;;;18.48;41.85;101122.13;5145779;27;20083;-57
2022/04/12 03:53:52;;;;;;;1.60;1.20;;;;;;;18.48;41.77;101127.50;5144993;27;20101;-53
2022/04/12 03:56:19;;;;;;;1.20;1.10;;;;;;;18.42;42.36;101120.06;5134050;27;20087;-56
2022/04/12 03:58:44;;;;;;;1.35;1.00;;;;;;;18.47;41.78;101120.41;5137029;27;20015;-57
2022/04/12 04:01:10;;;;;;;0.95;0.93;;;;;;;18.46;42.05;101105.28;5130253;27;20088;-57
2022/04/12 04:03:35;;;;;;;1.13;1.02;;;;;;;18.46;41.73;101099.03;5141599;27;20106;-57
2022/04/12 04:06:01;;;;;;;1.02;0.98;;;;;;;18.44;41.74;101093.84;5145072;27;20106;-55
2022/04/12 04:08:26;;;;;;;0.90;0.90;;;;;;;18.44;41.90;101107.28;5145287;27;20030;-57
2022/04/12 04:10:51;;;;;;;1.17;1.08;;;;;;;18.43;41.93;101113.66;5126911;27;20084;-58
2022/04/12 04:13:17;;;;;;;1.10;1.00;;;;;;;18.42;41.83;101109.28;5105773;28;20039;-56
2022/04/12 04:15:43;;;;;;;1.73;1.00;;;;;;;18.42;41.79;101105.75;5106598;28;20016;-55
2022/04/12 04:18:08;;;;;;;1.63;1.02;;;;;;;18.41;41.85;101093.31;5107595;27;20031;-58
2022/04/12 04:20:34;;;;;;;1.15;0.93;;;;;;;18.41;41.83;101099.53;5137255;27;20061;-53
2022/04/12 04:22:59;;;;;;;1.08;0.90;;;;;;;18.38;42.07;101102.53;5123624;27;20027;-57
2022/04/12 04:25:25;;;;;;;1.20;1.08;;;;;;;18.40;42.01;101105.94;5139448;27;20027;-57
2022/04/12 04:27:50;;;;;;;1.10;1.00;;;;;;;18.38;41.93;101105.22;5141550;27;20049;-58
2022/04/12 04:30:17;;;;;;;1.27;1.17;;;;;;;18.39;41.86;101104.25;5142290;27;20770;-56
2022/04/12 04:32:43;;;;;;;1.63;1.00;;;;;;;18.38;42.15;101099.84;5139531;27;20045;-55
2022/04/12 04:35:09;;;;;;;1.20;1.10;;;;;;;18.39;41.96;101101.56;5143302;27;20019;-56
2022/04/12 04:37:44;;;;;;;1.08;1.00;;;;;;;18.39;42.00;101101.56;5142031;27;20127;-58
2022/04/12 04:40:13;;;;;;;1.20;1.08;;;;;;;18.37;42.08;101106.25;5138664;27;20047;-55
2022/04/12 04:42:39;;;;;;;1.45;1.20;;;;;;;18.37;42.03;101103.53;5141729;27;20027;-57
2022/04/12 04:45:05;;;;;;;1.10;1.00;;;;;;;18.37;41.80;101108.09;5141561;27;20076;-58
2022/04/12 04:47:30;;;;;;;1.33;1.13;;;;;;;18.35;42.11;101108.25;5141108;27;20030;-60
2022/04/12 04:49:56;;;;;;;1.80;1.35;;;;;;;18.36;42.07;101106.41;5143513;27;20054;-60
2022/04/12 04:52:23;;;;;;;1.30;1.20;;;;;;;18.36;42.21;101103.72;5142397;27;20021;-61
2022/04/12 04:54:48;;;;;;;1.60;1.20;;;;;;;18.35;42.28;101100.19;5143008;27;20027;-59
2022/04/12 04:57:13;;;;;;;1.65;1.10;;;;;;;18.34;42.33;101106.56;5140549;27;20015;-55
2022/04/12 04:59:38;;;;;;;1.23;1.13;;;;;;;18.34;42.37;101111.94;5141814;27;20077;-56
2022/04/12 05:02:04;;;;;;;0.98;0.93;;;;;;;18.35;42.47;101099.31;5142393;27;20031;-55
2022/04/12 05:04:29;;;;;;;1.30;1.10;;;;;;;18.36;42.48;101101.03;5139049;27;20027;-57
2022/04/12 05:06:54;;;;;;;1.30;1.20;;;;;;;18.35;42.54;101110.09;5138118;27;20027;-56
2022/04/12 05:09:19;;;;;;;1.48;1.05;;;;;;;18.34;42.38;101111.94;5141167;27;20023;-55
2022/04/12 05:11:44;;;;;;;1.55;1.08;;;;;;;18.34;42.18;101113.78;5137466;27;20027;-56
2022/04/12 05:14:10;;;;;;;1.02;0.93;;;;;;;18.34;42.53;101105.72;5137456;27;20027;-57
2022/04/12 05:16:35;;;;;;;1.30;1.20;;;;;;;18.32;42.38;101100.50;5140194;27;20135;-56
2022/04/12 05:19:00;;;;;;;1.10;1.00;;;;;;;18.32;42.30;101100.50;5141414;27;20019;-53
2022/04/12 05:21:25;;;;;;;1.13;1.00;;;;;;;18.32;42.41;101100.50;5141785;27;20054;-60
2022/04/12 05:23:50;;;;;;;1.20;1.10;;;;;;;18.32;42.35;101108.56;5142419;27;20070;-60
2022/04/12 05:26:16;;;;;;;1.20;1.10;;;;;;;18.32;42.30;101105.03;5141752;27;20062;-59
2022/04/12 05:28:41;;;;;;;1.20;1.10;;;;;;;18.31;42.60;101116.78;5141251;27;20046;-61
2022/04/12 05:31:06;;;;;;;1.20;1.10;;;;;;;18.30;42.13;101110.56;5142423;27;20019;-60
2022/04/12 05:33:32;;;;;;;1.20;1.00;;;;;;;18.31;42.66;101116.78;5142566;27;20057;-61
2022/04/12 05:35:57;;;;;;;0.90;0.90;;;;;;;18.30;42.86;101117.81;5142575;27;20057;-62
2022/04/12 05:38:22;;;;;;;1.27;1.00;;;;;;;18.30;42.58;101104.34;5141707;28;20071;-60
2022/04/12 05:40:47;;;;;;;1.40;1.30;;;;;;;18.29;42.66;101098.13;5142403;28;20124;-60
2022/04/12 05:43:12;;;;;;;1.45;1.20;;;;;;;18.29;42.95;101094.59;5141324;28;20046;-60
2022/04/12 05:45:38;;;;;;;0.95;0.85;;;;;;;18.30;42.92;101104.34;5142172;28;20484;-61
2022/04/12 05:48:03;;;;;;;1.15;1.05;;;;;;;18.29;42.78;101108.03;5139113;28;20104;-57
2022/04/12 05:50:29;;;;;;;0.98;0.90;;;;;;;18.30;42.75;101109.72;5141510;28;20031;-58
2022/04/12 05:52:55;;;;;;;1.10;1.00;;;;;;;18.30;42.77;101112.41;5141350;28;20039;-60
2022/04/12 05:55:22;;;;;;;1.60;1.10;;;;;;;18.31;42.94;101116.78;5141274;28;20022;-62
2022/04/12 05:57:52;;;;;;;1.48;1.15;;;;;;;18.31;42.58;101111.41;5140180;28;20056;-59
2022/04/12 06:00:25;;;;;;;1.20;1.10;;;;;;;18.31;42.88;101114.09;5143555;27;20031;-61
2022/04/12 06:02:51;;;;;;;0.90;0.90;;;;;;;18.29;42.91;101116.13;5145830;27;20037;-62
2022/04/12 06:05:18;;;;;;;1.45;1.00;;;;;;;18.29;42.93;101110.72;5127550;27;20027;-60
2022/04/12 06:07:43;;;;;;;1.50;1.30;;;;;;;18.28;42.93;101109.91;5144998;27;20026;-61
2022/04/12 06:10:10;;;;;;;1.45;1.13;;;;;;;18.28;42.93;101111.75;5145544;27;20023;-59
2022/04/12 06:12:36;;;;;;;1.27;1.10;;;;;;;18.28;42.96;101117.13;5125489;27;20031;-59
2022/04/12 06:15:02;;;;;;;1.58;1.20;;;;;;;18.28;42.98;101114.44;5145490;27;20022;-59
2022/04/12 06:17:29;;;;;;;1.40;1.13;;;;;;;18.27;43.03;101118.97;5145206;27;20031;-58
2022/04/12 06:20:07;;;;;;;1.17;1.08;;;;;;;18.28;43.02;101127.91;5144985;27;20041;-57
2022/04/12 06:22:33;;;;;;;1.05;0.95;;;;;;;18.27;42.85;101126.22;5140889;27;20022;-58
2022/04/12 06:24:58;;;;;;;1.35;1.00;;;;;;;18.19;42.81;101108.16;5145684;27;20058;-56
2022/04/12 06:27:31;;;;;;;1.20;1.10;;;;;;;18.28;42.71;101120.66;5144118;27;20079;-56
2022/04/12 06:29:57;;;;;;;1.20;1.10;;;;;;;18.26;42.64;101108.34;5142584;27;20051;-58
2022/04/12 06:32:24;;;;;;;1.20;1.10;;;;;;;18.26;42.64;101103.81;5145618;27;20091;-58
2022/04/12 06:34:49;;;;;;;1.83;1.35;;;;;;;18.26;42.66;101101.13;5145593;27;20030;-56
2022/04/12 06:37:14;;;;;;;1.80;1.20;;;;;;;18.25;42.69;101094.06;5144889;27;20380;-58
2022/04/12 06:39:39;;;;;;;1.00;0.90;;;;;;;18.27;42.80;101104.69;5145151;27;20043;-59
2022/04/12 06:42:05;;;;;;;1.20;1.00;;;;;;;18.25;42.69;101104.81;5143539;27;20118;-55
2022/04/12 06:44:32;;;;;;;1.33;1.13;;;;;;;18.26;42.93;101111.88;5140782;27;20094;-58
2022/04/12 06:46:57;;;;;;;1.25;1.10;;;;;;;18.27;42.64;101132.44;5145008;27;20027;-59
2022/04/12 06:49:23;;;;;;;1.40;1.17;;;;;;;18.20;42.77;101121.44;5125385;27;20041;-56
2022/04/12 06:51:48;;;;;;;1.10;1.00;;;;;;;18.22;42.56;101130.22;5142167;27;20046;-56
2022/04/12 06:54:13;;;;;;;1.08;0.90;;;;;;;18.27;42.31;101142.38;5141997;27;20091;-56
2022/04/12 06:56:38;;;;;;;1.20;1.10;;;;;;;18.24;42.72;101130.91;5143821;27;20084;-54
2022/04/12 06:59:03;;;;;;;1.60;1.00;;;;;;;18.26;42.64;101133.41;5144201;27;20035;-58
2022/04/12 07:01:29;;;;;;;0.90;0.90;;;;;;;18.26;42.65;101146.03;5141346;27;20023;-55
2022/04/12 07:03:54;;;;;;;1.10;1.00;;;;;;;18.26;42.42;101129.88;5140826;27;20555;-56
2022/04/12 07:06:19;;;;;;;1.33;1.10;;;;;;;18.26;42.52;101127.19;5144076;27;20361;-57
2022/04/12 07:08:44;;;;;;;2.85;1.50;;;;;;;18.26;42.57;101124.50;5142788;27;20399;-56
2022/04/12 07:11:10;;;;;;;1.38;1.25;;;;;;;18.26;42.36;101124.50;5143469;27;20027;-56
2022/04/12 07:13:35;;;;;;;1.83;1.35;;;;;;;18.22;42.44;101116.78;5143971;27;20125;-58
2022/04/12 07:16:02;;;;;;;1.48;1.13;;;;;;;18.23;42.46;101123.84;5142390;27;20439;-52
2022/04/12 07:18:27;;;;;;;1.63;1.45;;;;;;;18.23;42.34;101129.22;5142721;27;20039;-54
2022/04/12 07:20:53;;;;;;;1.42;1.30;;;;;;;18.24;42.72;101125.50;5143813;27;20034;-57
2022/04/12 07:23:19;;;;;;;2.97;2.15;;;;;;;18.25;42.21;101126.34;5142459;27;20029;-56
2022/04/12 07:25:44;;;;;;;1.67;1.38;;;;;;;18.26;42.21;101119.13;5143003;27;20110;-57
2022/04/12 07:28:09;;;;;;;2.50;1.63;;;;;;;18.26;42.39;101111.03;5143171;27;20031;-57
2022/04/12 07:30:34;;;;;;;2.15;1.40;;;;;;;18.24;42.36;101106.69;5144585;27;20031;-57
2022/04/12 07:33:00;;;;;;;1.65;1.30;;;;;;;18.24;42.05;101095.06;5140354;27;20024;-54
2022/04/12 07:35:27;;;;;;;2.05;1.50;;;;;;;18.23;42.28;101088.84;5124801;27;20027;-58
2022/04/12 07:37:52;;;;;;;2.45;1.63;;;;;;;18.22;42.06;101086.28;5142492;27;20501;-59
2022/04/12 07:40:17;;;;;;;1.85;1.75;;;;;;;18.23;41.81;101088.84;5143700;27;20047;-60
2022/04/12 07:42:43;;;;;;;2.58;1.63;;;;;;;18.22;41.63;101076.41;5141327;27;20023;-60
2022/04/12 07:45:08;;;;;;;3.28;1.75;;;;;;;18.21;41.54;101082.75;5139724;27;20023;-59
2022/04/12 07:47:35;;;;;;;1.90;1.67;;;;;;;18.21;41.75;101077.38;5143138;27;20189;-52
2022/04/12 07:50:00;;;;;;;1.70;1.40;;;;;;;18.21;41.84;101072.00;5141597;27;20170;-54
2022/04/12 07:52:25;;;;;;;1.95;1.52;;;;;;;18.21;41.76;101074.69;5123625;27;20058;-54
2022/04/12 07:54:50;;;;;;;2.13;1.33;;;;;;;18.22;41.65;101079.09;5140526;27;20038;-60
2022/04/12 07:57:16;;;;;;;1.70;1.50;;;;;;;18.22;41.76;101073.72;5143319;27;20046;-61
2022/04/12 07:59:41;;;;;;;1.98;1.40;;;;;;;18.23;41.72;101061.94;5143155;27;20027;-55
2022/04/12 08:02:06;;;;;;;1.48;1.30;;;;;;;18.24;41.93;101060.91;5124965;28;20038;-56
2022/04/12 08:04:31;;;;;;;1.67;1.48;;;;;;;18.23;41.58;101059.25;5115008;28;20027;-53
2022/04/12 08:06:56;;;;;;;1.58;1.35;;;;;;;18.27;41.47;101049.00;5124750;28;20055;-54
2022/04/12 08:09:22;;;;;;;1.65;1.50;;;;;;;18.28;41.50;101060.59;5124612;28;20027;-55
2022/04/12 08:11:47;;;;;;;1.55;1.45;;;;;;;18.29;41.72;101051.53;5124226;28;20027;-55
2022/04/12 08:14:12;;;;;;;1.73;1.40;;;;;;;18.28;41.50;101048.00;5124960;28;20038;-54
2022/04/12 08:16:37;;;;;;;1.33;1.13;;;;;;;18.29;41.72;101049.66;5124887;28;20027;-56
2022/04/12 08:19:03;;;;;;;1.90;1.50;;;;;;;18.30;41.48;101040.59;5125232;28;20103;-54
2022/04/12 08:21:34;;;;;;;1.30;1.10;;;;;;;18.30;41.58;101059.41;5124913;28;20045;-56
2022/04/12 08:24:00;;;;;;;1.70;1.20;;;;;;;18.30;41.72;101062.13;5124296;28;20095;-56
2022/04/12 08:26:25;;;;;;;1.90;1.00;;;;;;;18.31;41.68;101058.44;5124494;28;20038;-55
2022/04/12 08:28:51;;;;;;;1.13;1.00;;;;;;;18.31;41.61;101063.81;5124539;28;20045;-56
2022/04/12 08:31:16;;;;;;;1.20;1.10;;;;;;;18.33;41.57;101061.81;5139464;27;20035;-53
2022/04/12 08:33:41;;;;;;;1.77;1.00;;;;;;;18.34;41.65;101071.56;5145361;27;20026;-56
2022/04/12 08:36:06;;;;;;;1.05;0.95;;;;;;;18.35;41.71;101062.50;5145261;27;20062;-56
2022/04/12 08:38:31;;;;;;;1.67;1.00;;;;;;;18.36;41.70;101057.97;5145079;27;20082;-55
2022/04/12 08:40:58;;;;;;;1.38;1.27;;;;;;;18.37;41.86;101059.63;5145570;27;20029;-56
2022/04/12 08:43:25;;;;;;;1.92;1.70;;;;;;;18.37;41.78;101059.63;5125894;27;20023;-56
2022/04/12 08:45:50;;;;;;;1.10;1.00;;;;;;;18.40;41.62;101051.25;5130992;27;20023;-55
2022/04/12 08:48:16;;;;;;;1.08;0.85;;;;;;;18.40;41.79;101051.25;5126668;27;20470;-55
2022/04/12 08:50:43;;;;;;;0.90;0.90;;;;;;;18.40;41.78;101046.69;5143714;27;20401;-55
2022/04/12 08:53:09;;;;;;;1.30;0.90;;;;;;;18.41;41.59;101034.91;5145035;27;20502;-57
2022/04/12 08:55:34;;;;;;;1.58;0.90;;;;;;;18.41;41.58;101039.47;5145025;27;20030;-56
2022/04/12 08:57:59;;;;;;;0.80;0.80;;;;;;;18.41;41.54;101045.69;5144035;27;20087;-54
2022/04/12 09:00:25;;;;;;;1.63;1.10;;;;;;;18.42;41.82;101049.22;5144757;27;20030;-56
2022/04/12 09:02:53;;;;;;;0.82;0.80;;;;;;;18.42;41.50;101049.22;5144350;27;20023;-56
2022/04/12 09:05:20;;;;;;;1.25;0.88;;;;;;;18.41;41.87;101043.00;5126384;27;20023;-55
2022/04/12 09:07:47;;;;;;;0.95;0.95;;;;;;;18.43;41.57;101045.53;5126255;27;20031;-54
2022/04/12 09:10:12;;;;;;;0.95;0.93;;;;;;;18.43;41.93;101045.53;5144740;27;20038;-56
2022/04/12 09:12:37;;;;;;;1.65;1.20;;;;;;;18.43;42.00;101045.53;5125514;27;20023;-54
2022/04/12 09:15:09;;;;;;;0.82;0.80;;;;;;;18.43;41.65;101045.53;5144935;27;20016;-56
2022/04/12 09:17:36;;;;;;;1.40;0.93;;;;;;;18.43;41.74;101040.13;5144816;27;20045;-55
2022/04/12 09:20:13;;;;;;;1.00;0.90;;;;;;;18.44;41.80;101040.00;5144787;27;20092;-57
2022/04/12 09:22:38;;;;;;;1.10;0.80;;;;;;;18.44;41.97;101039.16;5143907;27;20027;-53
2022/04/12 09:25:05;;;;;;;1.48;1.27;;;;;;;18.41;41.79;101036.78;5126122;28;20034;-54
2022/04/12 09:27:34;;;;;;;1.10;1.00;;;;;;;18.44;41.46;101045.38;5143754;27;20023;-56
2022/04/12 09:30:03;;;;;;;;;;;;;;;18.40;41.69;101054.78;5145459;27;20126;-55
2022/04/12 09:32:35;;;;;;;1.00;0.90;;;;;;;18.43;41.75;101048.22;5126138;27;19911;-55
2022/04/12 09:35:00;;;;;;;1.00;0.90;;;;;;;18.43;41.74;101054.44;5144498;27;20027;-56
2022/04/12 09:37:28;;;;;;;0.95;0.88;;;;;;;18.45;41.52;101051.59;5144229;27;20034;-55
2022/04/12 09:39:59;;;;;;;0.93;0.80;;;;;;;18.46;41.76;101046.03;5144225;28;20039;-55
2022/04/12 09:42:37;;;;;;;1.02;0.90;;;;;;;18.47;41.84;101030.72;5143577;28;20035;-52
2022/04/12 09:45:04;;;;;;;1.17;1.07;;;;;;;18.46;41.54;101029.88;5144408;28;20048;-54
2022/04/12 09:47:33;;;;;;;0.82;0.70;;;;;;;18.48;41.52;101021.66;5144353;27;20034;-52
2022/04/12 09:50:02;;;;;;;5.40;0.80;;;;;;;18.48;41.65;101018.97;5143154;28;20150;-55
2022/04/12 09:52:28;;;;;;;1.33;1.00;;;;;;;18.48;41.59;101019.81;5143848;27;20027;-54
2022/04/12 09:54:54;;;;;;;1.27;1.00;;;;;;;18.48;41.84;101010.91;5144176;28;20029;-52
2022/04/12 09:57:21;;;;;;;0.82;0.82;;;;;;;18.49;42.01;101002.66;5143608;28;20023;-56
2022/04/12 09:59:48;;;;;;;0.95;0.73;;;;;;;18.48;41.65;101005.50;5144343;28;20058;-55
2022/04/12 10:02:14;;;;;;;1.30;1.10;;;;;;;18.51;41.67;101009.72;5144160;28;20023;-55
2022/04/12 10:04:42;;;;;;;1.77;0.98;;;;;;;18.51;41.63;101009.72;5144338;28;20034;-53
2022/04/12 10:07:09;;;;;;;1.08;0.90;;;;;;;18.49;41.84;100999.94;5144078;28;20027;-56
2022/04/12 10:09:37;;;;;;;0.70;0.70;;;;;;;18.50;41.67;100992.72;5144097;28;20087;-52
2022/04/12 10:12:03;;;;;;;1.40;1.00;;;;;;;18.52;41.43;100993.41;5143463;28;20044;-54
2022/04/12 10:14:30;;;;;;;0.77;0.77;;;;;;;18.52;41.70;100976.38;5125810;28;20035;-54
2022/04/12 10:16:56;;;;;;;1.33;0.85;;;;;;;18.53;42.02;100987.00;5143998;28;20035;-55
2022/04/12 10:19:21;;;;;;;1.45;1.00;;;;;;;18.52;41.77;100990.72;5144188;28;20023;-55
2022/04/12 10:21:47;;;;;;;0.95;0.95;;;;;;;18.53;41.82;100995.09;5143300;28;20035;-57
2022/04/12 10:24:13;;;;;;;0.80;0.80;;;;;;;18.53;41.91;100995.09;5125544;28;20035;-54
2022/04/12 10:26:39;;;;;;;0.80;0.77;;;;;;;18.54;41.69;100994.06;5143616;28;20464;-56
2022/04/12 10:29:06;;;;;;;0.75;0.70;;;;;;;18.54;41.85;100993.25;5143951;28;20037;-52
2022/04/12 10:31:31;;;;;;;0.80;0.80;;;;;;;18.55;41.85;100995.75;5125495;28;20031;-55
2022/04/12 10:34:04;;;;;;;0.85;0.85;;;;;;;18.56;41.60;100993.91;5143935;28;20034;-55
2022/04/12 10:36:54;;;;;;;0.85;0.80;;;;;;;18.57;41.81;100990.22;5143769;28;20484;-55
2022/04/12 10:39:21;;;;;;;1.25;0.90;;;;;;;18.55;42.14;100990.38;5143656;28;20100;-55
2022/04/12 10:41:49;;;;;;;1.05;0.80;;;;;;;18.56;41.67;100991.22;5143143;28;20034;-57
2022/04/12 10:44:21;;;;;;;0.88;0.80;;;;;;;18.58;41.79;100999.97;5125353;28;20054;-55
2022/04/12 10:46:51;;;;;;;0.80;0.80;;;;;;;18.57;41.91;100993.75;5145991;27;20051;-55
2022/04/12 10:49:18;;;;;;;1.17;0.95;;;;;;;18.58;41.90;100991.91;5147819;27;20038;-55
2022/04/12 10:51:44;;;;;;;0.73;0.70;;;;;;;18.58;41.78;100989.22;5143234;27;20027;-55
2022/04/12 10:54:28;;;;;;;1.05;0.77;;;;;;;18.59;41.60;100980.94;5147384;27;20034;-56
2022/04/12 10:57:16;;;;;;;0.80;0.80;;;;;;;18.59;41.62;100988.19;5146449;27;20027;-56
2022/04/12 10:59:57;;;;;;;1.05;0.90;;;;;;;18.59;41.77;100993.56;5147642;27;20023;-56
2022/04/12 11:02:28;;;;;;;1.08;0.82;;;;;;;18.59;41.75;100989.03;5128862;27;20086;-56
2022/04/12 11:04:53;;;;;;;0.90;0.90;;;;;;;18.59;42.01;100988.19;5147226;27;20049;-56
2022/04/12 11:07:33;;;;;;;0.88;0.85;;;;;;;18.59;41.62;100986.34;5147129;27;20031;-56
2022/04/12 11:10:19;;;;;;;0.73;0.70;;;;;;;18.63;41.61;100978.78;5147194;27;20119;-56
2022/04/12 11:12:44;;;;;;;2.63;1.30;;;;;;;18.62;41.72;100979.78;5146143;27;20031;-57
2022/04/12 11:15:29;;;;;;;0.93;0.82;;;;;;;18.64;41.86;100978.59;5147251;27;20283;-56
2022/04/12 11:18:11;;;;;;;0.70;0.70;;;;;;;18.65;41.78;100966.00;5128447;27;20019;-57
2022/04/12 11:20:39;;;;;;;0.88;0.80;;;;;;;18.66;41.85;100973.06;5146796;27;20468;-56
2022/04/12 11:23:08;;;;;;;0.60;0.60;;;;;;;18.66;41.99;100965.00;5146447;27;20049;-56
2022/04/12 11:25:34;;;;;;;;;;;;;;;18.62;41.97;100959.09;5147232;27;20531;-52